createdAt,value
2022-08-29T00:01:27.990Z,15.13
2022-08-29T00:04:33.038Z,15.35
2022-08-29T00:07:39.159Z,15.00
2022-08-29T00:10:46.117Z,15.70
2022-08-29T00:13:51.560Z,15.58
2022-08-29T00:16:58.701Z,16.95
2022-08-29T00:20:04.203Z,15.68
2022-08-29T00:23:10.926Z,18.23
2022-08-29T00:26:16.108Z,14.30
2022-08-29T00:29:21.511Z,14.68
2022-08-29T00:32:27.097Z,15.85
2022-08-29T00:35:36.632Z,16.20
2022-08-29T00:38:43.343Z,15.30
2022-08-29T00:41:48.758Z,15.13
2022-08-29T00:44:54.524Z,14.90
2022-08-29T00:48:07.037Z,15.75
2022-08-29T00:51:18.312Z,15.80
2022-08-29T00:54:24.854Z,14.30
2022-08-29T00:57:25.489Z,14.38
2022-08-29T01:00:21.386Z,15.38
2022-08-29T01:03:26.292Z,16.17
2022-08-29T01:06:31.406Z,15.23
2022-08-29T01:09:38.910Z,13.83
2022-08-29T01:12:44.815Z,13.45
2022-08-29T01:15:54.743Z,12.58
2022-08-29T01:19:01.562Z,12.73
2022-08-29T01:22:23.593Z,13.20
2022-08-29T01:25:36.615Z,13.62
2022-08-29T01:28:44.975Z,13.22
2022-08-29T01:31:58.340Z,13.28
2022-08-29T01:35:04.352Z,13.00
2022-08-29T01:38:09.474Z,12.20
2022-08-29T01:41:07.965Z,10.93
2022-08-29T01:44:15.397Z,10.50
2022-08-29T01:47:21.584Z,9.40
2022-08-29T01:50:28.720Z,8.10
2022-08-29T01:53:34.231Z,10.68
2022-08-29T01:56:43.878Z,10.35
2022-08-29T01:59:50.446Z,10.48
2022-08-29T02:02:56.009Z,9.75
2022-08-29T02:06:04.202Z,12.50
2022-08-29T02:09:11.230Z,12.58
2022-08-29T02:12:17.656Z,13.72
2022-08-29T02:15:25.357Z,15.83
2022-08-29T02:18:30.193Z,16.05
2022-08-29T02:21:38.214Z,16.50
2022-08-29T02:24:44.208Z,15.28
2022-08-29T02:27:50.184Z,16.25
2022-08-29T02:30:57.468Z,15.40
2022-08-29T02:34:03.278Z,15.23
2022-08-29T02:37:10.119Z,16.87
2022-08-29T02:40:16.934Z,16.12
2022-08-29T02:43:23.487Z,16.65
2022-08-29T02:46:34.420Z,16.20
2022-08-29T02:49:40.891Z,15.63
2022-08-29T02:52:47.718Z,15.32
2022-08-29T02:55:54.390Z,15.53
2022-08-29T02:59:01.824Z,15.60
2022-08-29T03:02:07.808Z,14.00
2022-08-29T03:05:13.490Z,16.00
2022-08-29T03:08:25.320Z,15.93
2022-08-29T03:11:31.200Z,17.05
2022-08-29T03:14:36.479Z,17.07
2022-08-29T03:17:41.345Z,15.08
2022-08-29T03:20:48.154Z,13.90
2022-08-29T03:23:54.949Z,13.35
2022-08-29T03:27:02.882Z,11.48
2022-08-29T03:30:10.836Z,12.90
2022-08-29T03:33:15.349Z,12.47
2022-08-29T03:36:21.656Z,14.33
2022-08-29T03:39:28.097Z,15.05
2022-08-29T03:42:33.718Z,15.25
2022-08-29T03:45:39.680Z,15.00
2022-08-29T03:48:44.630Z,14.45
2022-08-29T03:51:51.085Z,13.48
2022-08-29T03:54:57.656Z,14.95
2022-08-29T03:58:05.012Z,13.80
2022-08-29T04:01:10.795Z,13.88
2022-08-29T04:04:19.187Z,13.62
2022-08-29T04:07:24.364Z,13.30
2022-08-29T04:10:40.897Z,13.25
2022-08-29T04:13:47.208Z,11.20
2022-08-29T04:16:53.121Z,13.18
2022-08-29T04:19:58.987Z,12.07
2022-08-29T04:23:04.460Z,12.90
2022-08-29T04:26:34.881Z,13.53
2022-08-29T04:29:17.103Z,12.28
2022-08-29T04:32:22.678Z,13.83
2022-08-29T04:35:28.339Z,12.73
2022-08-29T04:38:34.038Z,12.85
2022-08-29T04:41:38.743Z,14.00
2022-08-29T04:44:44.423Z,13.45
2022-08-29T04:47:52.216Z,11.90
2022-08-29T04:50:58.099Z,12.82
2022-08-29T04:54:04.632Z,14.63
2022-08-29T04:57:09.686Z,13.38
2022-08-29T05:00:21.465Z,12.37
2022-08-29T05:03:27.533Z,11.57
2022-08-29T05:06:34.218Z,12.70
2022-08-29T05:09:42.257Z,10.80
2022-08-29T05:12:48.154Z,11.45
2022-08-29T05:15:54.385Z,10.68
2022-08-29T05:18:52.994Z,10.23
2022-08-29T05:22:04.118Z,10.63
2022-08-29T05:28:13.316Z,9.93
2022-08-29T05:31:21.101Z,9.60
2022-08-29T05:34:34.047Z,9.68
2022-08-29T05:37:34.843Z,8.65
2022-08-29T05:40:41.796Z,8.70
2022-08-29T05:43:47.584Z,8.30
2022-08-29T05:46:52.766Z,9.23
2022-08-29T05:50:00.952Z,7.97
2022-08-29T05:53:05.945Z,7.45
2022-08-29T05:56:11.349Z,8.78
2022-08-29T05:59:18.812Z,6.83
2022-08-29T06:02:24.186Z,7.25
2022-08-29T06:05:30.406Z,7.05
2022-08-29T06:08:38.066Z,6.90
2022-08-29T06:11:45.098Z,7.78
2022-08-29T06:14:51.018Z,7.10
2022-08-29T06:17:58.224Z,6.03
2022-08-29T06:21:04.806Z,6.78
2022-08-29T06:24:10.347Z,7.17
2022-08-29T06:27:15.590Z,6.92
2022-08-29T06:30:22.354Z,5.95
2022-08-29T06:33:28.168Z,6.42
2022-08-29T06:36:37.009Z,6.50
2022-08-29T06:39:41.615Z,6.17
2022-08-29T06:42:49.502Z,5.85
2022-08-29T06:45:56.877Z,6.20
2022-08-29T06:49:03.431Z,6.03
2022-08-29T06:52:09.754Z,6.30
2022-08-29T06:55:16.820Z,5.78
2022-08-29T06:58:16.819Z,6.83
2022-08-29T07:01:28.432Z,5.33
2022-08-29T07:04:33.033Z,7.08
2022-08-29T07:07:39.729Z,6.25
2022-08-29T07:10:45.517Z,5.20
2022-08-29T07:13:51.869Z,6.08
2022-08-29T07:16:56.742Z,5.20
2022-08-29T07:20:01.947Z,5.97
2022-08-29T07:23:07.042Z,4.85
2022-08-29T07:26:28.600Z,4.87
2022-08-29T07:32:39.280Z,5.72
2022-08-29T07:35:45.237Z,5.83
2022-08-29T07:38:50.248Z,4.80
2022-08-29T07:41:56.356Z,3.65
2022-08-29T07:45:01.717Z,4.50
2022-08-29T07:48:07.947Z,4.17
2022-08-29T07:51:15.117Z,5.00
2022-08-29T07:54:21.931Z,4.62
2022-08-29T07:57:27.276Z,4.25
2022-08-29T08:00:35.562Z,4.40
2022-08-29T08:03:40.607Z,4.78
2022-08-29T08:06:47.252Z,3.98
2022-08-29T08:09:54.756Z,4.35
2022-08-29T08:13:03.103Z,4.05
2022-08-29T08:16:09.886Z,3.65
2022-08-29T08:19:16.109Z,4.58
2022-08-29T08:22:23.552Z,4.53
2022-08-29T08:25:28.736Z,4.42
2022-08-29T08:28:35.741Z,4.47
2022-08-29T08:31:41.915Z,4.45
2022-08-29T08:34:46.675Z,4.35
2022-08-29T08:37:51.368Z,4.20
2022-08-29T08:41:43.552Z,3.58
2022-08-29T08:45:08.007Z,4.70
2022-08-29T08:48:30.724Z,3.67
2022-08-29T08:51:40.662Z,4.37
2022-08-29T08:54:48.861Z,4.80
2022-08-29T08:58:04.597Z,4.37
2022-08-29T09:01:37.459Z,4.40
2022-08-29T09:05:12.416Z,4.72
2022-08-29T09:08:49.280Z,4.42
2022-08-29T09:11:54.640Z,4.35
2022-08-29T09:15:21.518Z,4.70
2022-08-29T09:18:41.009Z,4.60
2022-08-29T09:21:48.796Z,3.92
2022-08-29T09:25:15.740Z,4.37
2022-08-29T09:28:23.637Z,4.95
2022-08-29T09:31:42.715Z,4.25
2022-08-29T09:35:09.994Z,5.00
2022-08-29T09:38:04.321Z,4.20
2022-08-29T09:41:22.393Z,4.50
2022-08-29T09:44:37.007Z,4.40
2022-08-29T09:47:45.106Z,4.60
2022-08-29T09:50:51.958Z,4.53
2022-08-29T09:53:58.325Z,4.37
2022-08-29T09:57:09.821Z,4.47
2022-08-29T10:00:28.146Z,4.40
2022-08-29T10:03:38.089Z,4.47
2022-08-29T10:06:52.560Z,4.37
2022-08-29T10:09:54.219Z,4.50
2022-08-29T10:13:30.696Z,4.40
2022-08-29T10:16:54.327Z,4.58
2022-08-29T10:20:02.036Z,4.42
2022-08-29T10:23:18.153Z,5.20
2022-08-29T10:26:59.403Z,4.87
2022-08-29T10:30:28.184Z,4.47
2022-08-29T10:34:02.809Z,3.85
2022-08-29T10:37:13.168Z,5.35
2022-08-29T10:40:43.552Z,4.90
2022-08-29T10:44:09.011Z,5.05
2022-08-29T10:47:27.630Z,4.67
2022-08-29T10:51:07.050Z,4.00
2022-08-29T10:54:17.815Z,4.47
2022-08-29T10:57:23.677Z,4.85
2022-08-29T11:00:33.641Z,4.20
2022-08-29T11:04:07.163Z,4.30
2022-08-29T11:07:30.490Z,4.15
2022-08-29T11:10:45.884Z,5.00
2022-08-29T11:13:56.971Z,4.37
2022-08-29T11:17:03.664Z,5.22
2022-08-29T11:20:37.436Z,5.17
2022-08-29T11:23:58.762Z,4.25
2022-08-29T11:27:20.189Z,3.95
2022-08-29T11:30:40.280Z,4.70
2022-08-29T11:34:04.552Z,4.53
2022-08-29T11:37:36.789Z,4.10
2022-08-29T11:44:20.946Z,3.67
2022-08-29T11:47:52.059Z,4.50
2022-08-29T11:50:59.578Z,5.08
2022-08-29T11:54:06.965Z,4.78
2022-08-29T11:57:20.513Z,4.90
2022-08-29T12:00:49.300Z,3.87
2022-08-29T12:03:58.992Z,4.03
2022-08-29T12:07:13.704Z,4.40
2022-08-29T12:10:24.026Z,5.08
2022-08-29T12:13:31.883Z,4.05
2022-08-29T12:16:44.394Z,4.72
2022-08-29T12:20:08.785Z,4.53
2022-08-29T12:23:20.326Z,3.92
2022-08-29T12:26:55.716Z,5.10
2022-08-29T12:30:03.117Z,4.08
2022-08-29T12:33:16.682Z,4.87
2022-08-29T12:36:52.534Z,4.47
2022-08-29T12:40:02.397Z,4.50
2022-08-29T12:43:26.055Z,4.58
2022-08-29T12:46:47.971Z,4.67
2022-08-29T12:50:03.762Z,5.58
2022-08-29T12:53:21.254Z,4.33
2022-08-29T12:56:36.780Z,5.10
2022-08-29T12:59:43.401Z,4.20
2022-08-29T13:02:52.005Z,4.17
2022-08-29T13:05:58.665Z,4.78
2022-08-29T13:09:05.525Z,4.50
2022-08-29T13:12:33.128Z,4.95
2022-08-29T13:15:40.472Z,4.00
2022-08-29T13:19:07.300Z,4.92
2022-08-29T13:21:53.145Z,5.37
2022-08-29T13:24:58.996Z,4.85
2022-08-29T13:28:04.308Z,5.37
2022-08-29T13:31:29.696Z,4.72
2022-08-29T13:34:35.524Z,4.37
2022-08-29T13:37:50.481Z,4.97
2022-08-29T13:41:07.806Z,4.30
2022-08-29T13:44:14.936Z,4.85
2022-08-29T13:47:31.713Z,5.15
2022-08-29T13:50:37.797Z,5.25
2022-08-29T13:53:47.349Z,5.35
2022-08-29T13:56:54.743Z,4.67
2022-08-29T14:00:02.753Z,4.30
2022-08-29T14:03:09.046Z,4.50
2022-08-29T14:06:14.181Z,4.37
2022-08-29T14:09:20.587Z,5.08
2022-08-29T14:12:32.931Z,4.75
2022-08-29T14:15:33.784Z,4.62
2022-08-29T14:18:40.200Z,4.80
2022-08-29T14:21:46.322Z,5.40
2022-08-29T14:24:53.620Z,5.30
2022-08-29T14:28:00.039Z,5.12
2022-08-29T14:31:06.150Z,4.90
2022-08-29T14:34:12.624Z,5.45
2022-08-29T14:37:19.518Z,5.37
2022-08-29T14:40:25.658Z,5.58
2022-08-29T14:43:31.121Z,5.55
2022-08-29T14:46:36.465Z,5.47
2022-08-29T14:49:42.871Z,6.40
2022-08-29T14:52:49.620Z,7.53
2022-08-29T14:55:55.273Z,6.70
2022-08-29T14:59:01.598Z,5.80
2022-08-29T15:02:08.135Z,6.67
2022-08-29T15:05:13.867Z,7.70
2022-08-29T15:08:19.393Z,6.05
2022-08-29T15:11:25.870Z,6.42
2022-08-29T15:14:31.771Z,6.05
2022-08-29T15:17:38.398Z,6.40
2022-08-29T15:20:47.062Z,6.22
2022-08-29T15:23:52.888Z,6.75
2022-08-29T15:26:59.487Z,7.12
2022-08-29T15:30:04.962Z,6.95
2022-08-29T15:33:11.530Z,6.00
2022-08-29T15:36:17.252Z,6.50
2022-08-29T15:39:21.942Z,6.45
2022-08-29T15:42:29.183Z,7.47
2022-08-29T15:45:34.572Z,5.65
2022-08-29T15:48:42.298Z,7.42
2022-08-29T15:51:51.564Z,6.03
2022-08-29T15:54:57.613Z,6.35
2022-08-29T15:57:57.848Z,5.50
2022-08-29T16:00:50.818Z,5.97
2022-08-29T16:03:49.873Z,5.35
2022-08-29T16:06:56.387Z,5.35
2022-08-29T16:10:04.570Z,5.87
2022-08-29T16:13:09.030Z,6.22
2022-08-29T16:16:15.070Z,6.33
2022-08-29T16:19:20.460Z,6.03
2022-08-29T16:22:26.940Z,6.33
2022-08-29T16:25:33.706Z,6.53
2022-08-29T16:28:40.332Z,5.65
2022-08-29T16:31:46.868Z,7.67
2022-08-29T16:34:47.947Z,6.03
2022-08-29T16:38:02.790Z,6.72
2022-08-29T16:41:02.359Z,5.10
2022-08-29T16:44:08.769Z,6.12
2022-08-29T16:47:14.427Z,5.45
2022-08-29T16:50:20.775Z,5.45
2022-08-29T16:53:26.129Z,6.05
2022-08-29T16:56:32.808Z,5.42
2022-08-29T16:59:39.561Z,7.42
2022-08-29T17:02:48.718Z,6.62
2022-08-29T17:05:54.322Z,6.53
2022-08-29T17:09:02.489Z,7.37
2022-08-29T17:12:08.143Z,6.40
2022-08-29T17:15:15.730Z,6.28
2022-08-29T17:18:23.412Z,6.53
2022-08-29T17:21:30.169Z,6.85
2022-08-29T17:24:36.691Z,6.50
2022-08-29T17:27:51.393Z,6.08
2022-08-29T17:30:50.291Z,6.10
2022-08-29T17:33:56.705Z,6.90
2022-08-29T17:36:57.755Z,7.08
2022-08-29T17:43:04.550Z,6.58
2022-08-29T17:46:09.606Z,6.80
2022-08-29T17:49:17.140Z,6.65
2022-08-29T17:52:22.870Z,6.60
2022-08-29T17:55:23.790Z,6.17
2022-08-29T17:58:31.569Z,6.47
2022-08-29T18:01:37.554Z,5.70
2022-08-29T18:04:37.035Z,6.22
2022-08-29T18:07:42.805Z,6.08
2022-08-29T18:10:48.489Z,5.92
2022-08-29T18:13:54.043Z,6.25
2022-08-29T18:16:59.942Z,6.53
2022-08-29T18:20:09.428Z,6.75
2022-08-29T18:23:14.333Z,6.92
2022-08-29T18:26:21.643Z,9.53
2022-08-29T18:29:28.112Z,7.15
2022-08-29T18:32:37.451Z,10.93
2022-08-29T18:35:42.794Z,8.13
2022-08-29T18:38:48.236Z,7.50
2022-08-29T18:41:54.821Z,6.70
2022-08-29T18:45:01.298Z,6.83
2022-08-29T18:48:08.843Z,6.40
2022-08-29T18:51:14.636Z,6.70
2022-08-29T18:54:24.061Z,6.62
2022-08-29T18:57:20.705Z,7.95
2022-08-29T19:00:27.136Z,7.12
2022-08-29T19:03:32.739Z,6.60
2022-08-29T19:06:38.733Z,7.55
2022-08-29T19:09:45.189Z,7.35
2022-08-29T19:12:51.867Z,6.35
2022-08-29T19:15:51.103Z,7.28
2022-08-29T19:18:57.011Z,7.75
2022-08-29T19:22:02.780Z,7.50
2022-08-29T19:25:11.147Z,6.72
2022-08-29T19:28:17.357Z,7.97
2022-08-29T19:31:23.541Z,7.45
2022-08-29T19:34:29.548Z,7.55
2022-08-29T19:37:35.422Z,7.72
2022-08-29T19:40:41.534Z,8.35
2022-08-29T19:43:48.371Z,7.05
2022-08-29T19:46:55.246Z,7.78
2022-08-29T19:50:03.692Z,6.95
2022-08-29T19:53:10.256Z,7.45
2022-08-29T19:56:15.859Z,7.47
2022-08-29T19:59:22.245Z,7.25
2022-08-29T20:02:28.814Z,7.28
2022-08-29T20:05:35.190Z,7.55
2022-08-29T20:08:41.163Z,9.35
2022-08-29T20:11:48.631Z,7.35
2022-08-29T20:14:56.587Z,7.87
2022-08-29T20:18:02.923Z,7.53
2022-08-29T20:21:09.681Z,7.83
2022-08-29T20:24:17.409Z,7.35
2022-08-29T20:27:22.955Z,7.58
2022-08-29T20:30:32.533Z,7.53
2022-08-29T20:33:41.155Z,7.87
2022-08-29T20:37:03.253Z,7.45
2022-08-29T20:40:10.035Z,6.92
2022-08-29T20:43:16.497Z,7.12
2022-08-29T20:46:24.091Z,7.80
2022-08-29T20:49:33.517Z,7.80
2022-08-29T20:52:40.009Z,7.62
2022-08-29T20:55:46.096Z,7.33
2022-08-29T20:58:54.133Z,8.38
2022-08-29T21:02:02.127Z,7.72
2022-08-29T21:05:26.156Z,7.67
2022-08-29T21:08:35.898Z,7.75
2022-08-29T21:11:40.981Z,7.33
2022-08-29T21:14:47.266Z,8.15
2022-08-29T21:17:53.493Z,7.55
2022-08-29T21:21:01.672Z,6.75
2022-08-29T21:24:08.663Z,7.60
2022-08-29T21:27:15.057Z,7.25
2022-08-29T21:30:21.391Z,7.60
2022-08-29T21:33:19.913Z,7.90
2022-08-29T21:36:34.609Z,7.42
2022-08-29T21:39:34.801Z,7.10
2022-08-29T21:42:28.774Z,7.37
2022-08-29T21:48:38.618Z,7.72
2022-08-29T21:51:44.847Z,8.53
2022-08-29T21:54:54.181Z,8.20
2022-08-29T21:58:02.724Z,7.00
2022-08-29T22:01:07.979Z,7.28
2022-08-29T22:04:19.099Z,7.12
2022-08-29T22:07:20.517Z,7.65
2022-08-29T22:10:25.824Z,7.10
2022-08-29T22:13:25.158Z,7.20
2022-08-29T22:16:38.003Z,10.70
2022-08-29T22:19:43.481Z,7.67
2022-08-29T22:22:48.100Z,7.67
2022-08-29T22:25:56.382Z,8.20
2022-08-29T22:29:02.181Z,8.05
2022-08-29T22:32:08.780Z,8.90
2022-08-29T22:35:14.540Z,8.73
2022-08-29T22:38:20.513Z,7.55
2022-08-29T22:41:22.745Z,8.40
2022-08-29T22:45:03.355Z,8.30
2022-08-29T22:47:35.615Z,7.28
2022-08-29T22:50:41.066Z,8.10
2022-08-29T22:53:49.220Z,8.23
2022-08-29T22:56:57.406Z,8.55
2022-08-29T23:00:02.475Z,9.15
2022-08-29T23:03:10.637Z,9.10
2022-08-29T23:06:16.452Z,7.83
2022-08-29T23:09:23.049Z,7.87
2022-08-29T23:12:28.650Z,8.73
2022-08-29T23:15:34.362Z,8.05
2022-08-29T23:18:40.862Z,7.97
2022-08-29T23:21:45.861Z,8.50
2022-08-29T23:24:58.036Z,8.35
2022-08-29T23:27:59.699Z,9.58
2022-08-29T23:31:05.302Z,8.80
2022-08-29T23:34:11.263Z,7.92
2022-08-29T23:37:17.721Z,8.38
2022-08-29T23:40:25.234Z,7.90
2022-08-29T23:43:36.880Z,8.18
2022-08-29T23:46:44.586Z,8.18
2022-08-29T23:49:43.581Z,7.95
2022-08-29T23:52:50.207Z,9.10
2022-08-29T23:55:55.844Z,9.55
2022-08-29T23:59:03.824Z,9.18
